Boomer, West Virginia
Current Conditions -  °F | °C
As of 8:21 AM on Thursday 23 Oct 2014 (Local Time) from KCRW Reporting Station
Broken Clouds Broken Clouds  
Wind Chill:   Ceiling: 3900
Heat Index:   Visibility: 10mi
Dew Point:   Wind: 0mph
Humidity: 83%   Direction: NA
Pressure: 30.2"   Gusts: NA
Location:  38.15°N, 81.29°W
Report Text: KCRW 231221Z 00000KT 10SM SCT017 BKN039 08/06 A3020 RMK AO2 T00830056
Loading
Personal Weather Stations






























Interactive Weather Map
Tropical Storm Tracking
New forecast layout! Learn more

10-Day Weather Forecast

Advertisements
Track Severe Weather on mobile